Time;durP1;ratioP1;P1;durP2;ratioP2;P2;SDS_P1;SDS_P2;PMS_P1;PMS_P2;Temp;Humidity;BMP_temperature;BMP_pressure;BME280_temperature;BME280_humidity;BME280_pressure;Samples;Min_cycle;Max_cycle;Signal;HPM_P1;HPM_P2
2024/04/05 00:01:55;;;;;;;5.75;2.30;;;;;;;11.30;41.78;94134.41;5070537;28;20043;-76
2024/04/05 00:04:20;;;;;;;4.80;2.45;;;;;;;11.46;41.49;94132.88;5070438;28;20028;-75
2024/04/05 00:06:46;;;;;;;4.28;2.30;;;;;;;11.52;41.15;94115.69;5072002;28;20468;-75
2024/04/05 00:09:11;;;;;;;7.55;2.60;;;;;;;11.40;41.39;94139.44;5070877;28;20033;-76
2024/04/05 00:11:38;;;;;;;6.93;2.38;;;;;;;11.63;40.51;94127.63;5070894;28;20387;-76
2024/04/05 00:14:03;;;;;;;3.28;2.08;;;;;;;11.46;41.20;94127.56;5071011;28;20032;-76
2024/04/05 00:16:28;;;;;;;5.88;2.75;;;;;;;11.46;41.42;94111.59;5070997;28;20077;-75
2024/04/05 00:18:55;;;;;;;4.55;2.35;;;;;;;11.64;40.89;94128.41;5071552;28;20028;-76
2024/04/05 00:21:20;;;;;;;3.83;2.42;;;;;;;11.74;40.46;94131.53;5070917;28;20035;-76
2024/04/05 00:23:46;;;;;;;3.33;1.90;;;;;;;11.78;40.42;94129.84;5071126;28;20119;-76
2024/04/05 00:26:11;;;;;;;9.07;2.10;;;;;;;11.66;40.49;94132.34;5071192;28;20100;-76
2024/04/05 00:28:36;;;;;;;2.67;2.30;;;;;;;11.16;41.79;94135.31;5071179;28;20029;-76
2024/04/05 00:31:03;;;;;;;6.03;2.20;;;;;;;11.31;41.81;94135.97;5074439;28;20052;-75
2024/04/05 00:33:29;;;;;;;4.50;1.95;;;;;;;11.08;41.87;94137.94;5074783;28;20036;-76
2024/04/05 00:35:56;;;;;;;7.95;2.50;;;;;;;11.11;41.96;94126.69;5075189;28;20091;-76
2024/04/05 00:38:25;;;;;;;6.80;2.00;;;;;;;10.63;43.28;94145.25;5074910;28;20040;-76
2024/04/05 00:40:52;;;;;;;3.50;2.35;;;;;;;10.39;43.29;94150.13;5075027;28;20040;-76
2024/04/05 00:43:18;;;;;;;5.25;2.70;;;;;;;10.07;44.67;94135.97;5074953;28;20016;-75
2024/04/05 00:45:48;;;;;;;7.78;2.08;;;;;;;9.88;44.86;94144.06;5075298;28;20085;-76
2024/04/05 00:48:15;;;;;;;5.68;1.92;;;;;;;10.02;44.39;94149.38;5074649;28;20048;-76
2024/04/05 00:50:41;;;;;;;4.57;2.17;;;;;;;10.35;44.29;94144.59;5075071;28;20067;-76
2024/04/05 00:53:12;;;;;;;2.58;1.92;;;;;;;9.43;46.23;94148.53;5074862;28;20033;-75
2024/04/05 00:55:39;;;;;;;6.50;2.03;;;;;;;9.59;46.10;94145.53;5075017;28;20113;-76
2024/04/05 00:58:05;;;;;;;4.50;2.28;;;;;;;9.79;45.68;94155.72;5074640;28;20517;-76
2024/04/05 01:00:31;;;;;;;3.28;1.77;;;;;;;10.25;44.85;94152.81;5074622;28;20032;-76
2024/04/05 01:02:58;;;;;;;2.90;1.70;;;;;;;10.45;44.05;94162.19;5074677;28;20035;-76
2024/04/05 01:05:23;;;;;;;6.20;2.25;;;;;;;10.41;44.28;94150.59;5074631;28;20036;-76
2024/04/05 01:07:51;;;;;;;3.58;1.98;;;;;;;10.27;44.61;94156.72;5074493;28;20028;-76
2024/04/05 01:10:16;;;;;;;4.38;2.20;;;;;;;10.50;44.15;94154.09;5074221;28;20424;-75
2024/04/05 01:12:42;;;;;;;4.43;2.10;;;;;;;10.40;44.15;94162.31;5075008;28;20107;-76
2024/04/05 01:15:07;;;;;;;4.90;1.90;;;;;;;10.21;44.39;94173.13;5074469;28;20036;-76
2024/04/05 01:17:35;;;;;;;6.03;2.25;;;;;;;10.28;44.89;94163.63;5074428;28;20040;-76
2024/04/05 01:20:04;;;;;;;3.40;2.35;;;;;;;10.47;44.31;94170.66;5074545;28;20056;-76
2024/04/05 01:22:47;;;;;;;3.08;1.92;;;;;;;10.43;43.67;94175.78;5074729;28;20095;-75
2024/04/05 01:25:13;;;;;;;3.35;1.60;;;;;;;9.96;45.45;94166.50;5074334;28;20051;-75
2024/04/05 01:27:43;;;;;;;3.38;2.25;;;;;;;10.22;44.46;94175.44;5074736;28;20485;-76
2024/04/05 01:30:09;;;;;;;4.68;2.58;;;;;;;10.04;44.86;94165.78;5074082;28;20037;-76
2024/04/05 01:32:34;;;;;;;5.90;2.20;;;;;;;10.28;44.58;94171.59;5074068;28;20033;-76
2024/04/05 01:34:59;;;;;;;4.32;2.20;;;;;;;10.19;44.68;94170.75;5074104;28;20451;-76
2024/04/05 01:37:25;;;;;;;4.22;2.13;;;;;;;10.42;44.28;94171.56;5073703;28;20020;-75
2024/04/05 01:39:50;;;;;;;5.03;2.80;;;;;;;10.26;43.99;94173.78;5074377;28;20028;-76
2024/04/05 01:42:15;;;;;;;2.47;1.50;;;;;;;10.44;44.19;94176.59;5073993;28;20452;-76
2024/04/05 01:44:41;;;;;;;7.13;1.92;;;;;;;10.18;44.33;94169.16;5073914;28;20157;-76
2024/04/05 01:47:07;;;;;;;5.78;2.13;;;;;;;10.35;44.09;94178.38;5073928;28;20040;-76
2024/04/05 01:49:32;;;;;;;3.50;2.25;;;;;;;10.45;44.04;94173.63;5073973;28;20060;-76
2024/04/05 01:51:58;;;;;;;2.10;1.50;;;;;;;10.46;44.20;94169.09;5074230;28;20049;-76
2024/04/05 01:54:23;;;;;;;4.03;1.50;;;;;;;10.19;44.71;94173.41;5073432;28;20036;-75
2024/04/05 01:56:48;;;;;;;3.47;1.88;;;;;;;10.29;44.57;94175.81;5073452;28;20490;-76
2024/04/05 01:59:14;;;;;;;3.90;1.70;;;;;;;10.18;44.64;94166.50;5073471;28;20378;-76
2024/04/05 02:01:40;;;;;;;3.03;1.63;;;;;;;10.04;45.17;94172.97;5073593;28;20033;-75
2024/04/05 02:04:05;;;;;;;1.90;1.50;;;;;;;10.19;44.44;94170.75;5073890;28;20024;-76
2024/04/05 02:06:30;;;;;;;6.22;2.00;;;;;;;10.04;44.80;94165.78;5073388;28;20028;-75
2024/04/05 02:08:56;;;;;;;5.95;1.60;;;;;;;10.13;44.75;94179.91;5073065;28;20037;-75
2024/04/05 02:11:21;;;;;;;3.53;1.60;;;;;;;10.20;44.82;94182.97;5072974;28;20037;-75
2024/04/05 02:13:46;;;;;;;4.22;1.77;;;;;;;9.68;45.68;94186.25;5073232;28;20041;-75
2024/04/05 02:16:12;;;;;;;5.30;2.05;;;;;;;9.87;45.61;94178.94;5073245;28;20461;-74
2024/04/05 02:18:37;;;;;;;5.93;1.70;;;;;;;10.02;45.32;94183.91;5073834;28;20067;-75
2024/04/05 02:21:03;;;;;;;3.90;1.92;;;;;;;9.98;45.23;94180.25;5072998;28;20497;-75
2024/04/05 02:23:28;;;;;;;4.38;1.70;;;;;;;9.91;45.50;94184.44;5073124;28;20032;-75
2024/04/05 02:25:53;;;;;;;5.05;1.80;;;;;;;9.81;45.69;94186.22;5073059;28;20036;-75
2024/04/05 02:28:19;;;;;;;2.67;1.67;;;;;;;9.74;46.20;94193.00;5073018;28;20047;-75
2024/04/05 02:30:45;;;;;;;4.55;1.85;;;;;;;9.79;45.76;94187.59;5073148;28;20030;-75
2024/04/05 02:33:13;;;;;;;3.17;2.00;;;;;;;9.94;45.63;94199.75;5072897;28;20039;-76
2024/04/05 02:35:39;;;;;;;2.28;1.73;;;;;;;9.87;45.46;94194.88;5072935;28;20036;-75
2024/04/05 02:38:05;;;;;;;3.92;1.83;;;;;;;9.91;45.64;94201.16;5073136;28;20039;-75
2024/04/05 02:40:30;;;;;;;2.50;1.45;;;;;;;10.00;45.64;94198.56;5072875;28;20380;-75
2024/04/05 02:42:56;;;;;;;4.75;1.50;;;;;;;9.93;45.58;94195.56;5073149;28;20024;-75
2024/04/05 02:45:21;;;;;;;3.47;1.75;;;;;;;9.87;45.62;94203.63;5072476;28;20039;-75
2024/04/05 02:47:47;;;;;;;2.85;1.45;;;;;;;9.86;46.03;94203.91;5072456;28;20098;-75
2024/04/05 02:50:12;;;;;;;3.53;1.40;;;;;;;9.86;45.97;94195.94;5072522;28;20149;-75
2024/04/05 02:52:37;;;;;;;3.92;1.52;;;;;;;9.88;45.58;94191.91;5072134;28;20079;-75
2024/04/05 02:55:05;;;;;;;2.63;1.67;;;;;;;9.84;45.83;94203.41;5072932;28;20024;-75
2024/04/05 02:57:31;;;;;;;3.40;1.60;;;;;;;9.80;45.96;94194.47;5072164;28;20056;-75
2024/04/05 02:59:56;;;;;;;3.97;1.90;;;;;;;9.64;46.11;94175.41;5072302;28;20128;-75
2024/04/05 03:02:21;;;;;;;3.92;1.67;;;;;;;9.75;45.97;94191.94;5072466;28;20111;-75
2024/04/05 03:04:47;;;;;;;3.03;1.52;;;;;;;9.76;46.39;94193.50;5072122;28;20132;-75
2024/04/05 03:07:12;;;;;;;3.78;1.70;;;;;;;9.67;46.32;94200.59;5072491;28;20032;-74
2024/04/05 03:09:40;;;;;;;4.47;2.17;;;;;;;9.72;46.15;94193.31;5072853;28;20388;-75
2024/04/05 03:12:05;;;;;;;5.72;2.58;;;;;;;9.74;46.13;94191.13;5071851;28;20131;-75
2024/04/05 03:14:31;;;;;;;6.40;3.17;;;;;;;9.81;45.91;94193.41;5072014;28;20120;-75
2024/04/05 03:16:57;;;;;;;4.05;2.63;;;;;;;9.64;46.08;94194.00;5072012;28;20509;-75
2024/04/05 03:19:23;;;;;;;5.38;2.35;;;;;;;9.63;46.09;94207.59;5071929;28;20024;-75
2024/04/05 03:21:48;;;;;;;5.53;2.45;;;;;;;9.62;46.15;94212.13;5072571;28;20017;-75
2024/04/05 03:24:14;;;;;;;6.60;2.70;;;;;;;9.64;46.08;94211.81;5072055;28;20036;-75
2024/04/05 03:26:39;;;;;;;7.78;2.40;;;;;;;9.52;46.41;94204.38;5071890;28;20060;-76
2024/04/05 03:29:06;;;;;;;4.03;2.25;;;;;;;9.53;46.52;94216.56;5071912;28;20050;-76
2024/04/05 03:31:32;;;;;;;7.15;1.83;;;;;;;9.52;46.38;94214.97;5071825;28;20048;-75
2024/04/05 03:33:57;;;;;;;4.80;2.28;;;;;;;9.57;46.17;94212.22;5071853;28;20466;-76
2024/04/05 03:36:23;;;;;;;5.05;2.53;;;;;;;9.58;46.40;94207.72;5071580;28;20132;-76
2024/04/05 03:38:50;;;;;;;9.45;1.70;;;;;;;9.57;46.53;94208.78;5071643;28;20036;-75
2024/04/05 03:41:15;;;;;;;5.15;2.00;;;;;;;9.58;46.43;94207.72;5071901;28;20067;-76
2024/04/05 03:43:41;;;;;;;5.45;2.25;;;;;;;9.54;46.20;94206.69;5071778;28;20052;-76
2024/04/05 03:46:06;;;;;;;3.45;1.98;;;;;;;9.60;46.24;94208.97;5072102;28;20567;-76
2024/04/05 03:48:31;;;;;;;4.05;1.60;;;;;;;9.62;46.09;94214.78;5071397;28;20033;-76
2024/04/05 03:50:57;;;;;;;4.78;1.65;;;;;;;9.43;46.52;94206.94;5071172;28;20033;-76
2024/04/05 03:53:22;;;;;;;5.50;1.60;;;;;;;9.57;46.50;94216.75;5071413;28;20066;-76
2024/04/05 03:55:53;;;;;;;8.68;2.17;;;;;;;9.67;46.18;94227.16;5071660;28;20490;-76
2024/04/05 03:58:19;;;;;;;4.65;2.40;;;;;;;9.66;46.11;94230.91;5071294;28;20048;-75
2024/04/05 04:00:50;;;;;;;5.25;2.03;;;;;;;9.62;46.38;94224.63;5072012;28;20506;-76
2024/04/05 04:03:15;;;;;;;6.00;2.67;;;;;;;9.63;46.42;94232.28;5071281;28;20447;-76
2024/04/05 04:05:40;;;;;;;6.75;2.00;;;;;;;9.60;46.13;94216.16;5070563;28;20033;-76
2024/04/05 04:08:06;;;;;;;6.32;1.70;;;;;;;9.73;46.43;94236.63;5070967;28;20512;-76
2024/04/05 04:10:31;;;;;;;2.55;1.70;;;;;;;9.63;46.39;94226.97;5071522;28;20040;-75
2024/04/05 04:12:57;;;;;;;4.07;1.65;;;;;;;9.72;46.55;94230.50;5071649;28;20020;-76
2024/04/05 04:15:22;;;;;;;4.68;1.67;;;;;;;9.76;46.71;94238.66;5071078;28;20044;-76
2024/04/05 04:17:48;;;;;;;4.78;1.95;;;;;;;9.68;47.17;94234.81;5070853;28;20409;-76
2024/04/05 04:20:13;;;;;;;3.22;1.85;;;;;;;9.68;47.20;94244.69;5070993;28;20099;-76
2024/04/05 04:22:39;;;;;;;7.45;1.83;;;;;;;9.65;47.25;94234.63;5070696;28;20152;-76
2024/04/05 04:25:05;;;;;;;4.55;2.47;;;;;;;9.77;47.01;94248.22;5071275;28;20024;-76
2024/04/05 04:27:31;;;;;;;4.25;1.58;;;;;;;9.72;47.72;94257.06;5070781;28;20040;-77
2024/04/05 04:29:58;;;;;;;5.72;1.50;;;;;;;9.85;47.63;94252.81;5070586;28;20047;-76
2024/04/05 04:32:24;;;;;;;2.03;1.67;;;;;;;9.97;47.25;94244.34;5070489;28;20409;-77
2024/04/05 04:34:50;;;;;;;4.80;1.88;;;;;;;10.13;47.11;94256.19;5070319;28;20035;-77
2024/04/05 04:37:16;;;;;;;2.13;1.40;;;;;;;9.93;47.69;94262.72;5070344;28;20032;-77
2024/04/05 04:39:42;;;;;;;9.48;2.30;;;;;;;10.12;47.16;94254.66;5071159;28;20031;-77
2024/04/05 04:42:08;;;;;;;10.38;2.72;;;;;;;10.31;46.31;94263.25;5070752;28;20052;-75
2024/04/05 04:44:33;;;;;;;13.25;3.50;;;;;;;10.43;46.23;94260.09;5070340;28;20429;-75
2024/04/05 04:46:59;;;;;;;9.57;3.47;;;;;;;10.54;45.86;94267.53;5069990;28;20033;-75
2024/04/05 04:49:24;;;;;;;7.30;3.50;;;;;;;10.69;45.60;94263.75;5068943;28;20024;-75
2024/04/05 04:51:49;;;;;;;16.85;4.55;;;;;;;10.87;44.90;94272.63;5068396;28;20474;-74
2024/04/05 04:54:15;;;;;;;14.80;4.35;;;;;;;10.93;44.27;94250.91;5069234;28;20031;-74
2024/04/05 04:56:41;;;;;;;14.07;4.18;;;;;;;11.17;44.01;94264.66;5069508;28;20039;-74
2024/04/05 04:59:08;;;;;;;11.90;3.95;;;;;;;11.16;43.95;94260.44;5069820;28;20135;-75
2024/04/05 05:01:35;;;;;;;24.27;4.70;;;;;;;11.34;44.06;94265.88;5069345;28;20036;-75
2024/04/05 05:04:00;;;;;;;19.88;4.82;;;;;;;11.27;43.94;94276.16;5070665;28;20024;-74
2024/04/05 05:06:26;;;;;;;18.65;4.88;;;;;;;11.38;44.29;94275.59;5070095;28;20386;-74
2024/04/05 05:08:52;;;;;;;16.35;4.82;;;;;;;11.52;43.70;94272.84;5070044;28;20462;-74
2024/04/05 05:11:17;;;;;;;13.32;5.03;;;;;;;11.54;43.62;94279.44;5069974;28;20090;-74
2024/04/05 05:13:42;;;;;;;14.32;5.22;;;;;;;11.63;44.13;94274.16;5069449;28;20548;-74
2024/04/05 05:16:08;;;;;;;16.58;6.03;;;;;;;11.78;43.48;94283.63;5071891;28;20024;-77
2024/04/05 05:18:34;;;;;;;12.73;4.88;;;;;;;11.59;44.11;94283.84;5073657;28;20115;-74
2024/04/05 05:20:59;;;;;;;10.65;4.68;;;;;;;11.55;44.29;94291.66;5073952;28;20028;-74
2024/04/05 05:23:24;;;;;;;11.45;5.38;;;;;;;11.35;44.43;94288.72;5074343;28;20408;-74
2024/04/05 05:25:50;;;;;;;15.20;5.43;;;;;;;11.33;44.13;94293.56;5074109;28;20486;-74
2024/04/05 05:28:15;;;;;;;14.10;4.95;;;;;;;11.59;43.83;94302.50;5074192;28;20088;-74
2024/04/05 05:30:41;;;;;;;12.13;5.13;;;;;;;11.42;44.42;94315.72;5074373;28;20485;-74
2024/04/05 05:33:08;;;;;;;11.70;4.90;;;;;;;11.72;43.73;94296.28;5073887;28;20040;-74
2024/04/05 05:35:35;;;;;;;17.88;5.80;;;;;;;11.72;43.91;94290.19;5073830;28;20029;-75
2024/04/05 05:38:03;;;;;;;11.45;5.50;;;;;;;11.78;43.33;94300.41;5073632;28;20055;-74
2024/04/05 05:40:30;;;;;;;14.13;5.80;;;;;;;12.07;43.44;94307.06;5073650;28;20098;-74
2024/04/05 05:42:55;;;;;;;18.77;5.20;;;;;;;12.01;42.72;94288.53;5074168;28;20028;-74
2024/04/05 05:45:22;;;;;;;22.02;5.60;;;;;;;12.13;43.09;94309.25;5073191;28;20378;-74
2024/04/05 05:47:55;;;;;;;17.17;4.55;;;;;;;10.96;44.05;94308.84;5073562;28;20046;-74
2024/04/05 05:50:24;;;;;;;15.57;5.65;;;;;;;11.34;43.47;94311.91;5073426;28;20074;-74
2024/04/05 05:52:50;;;;;;;21.70;5.53;;;;;;;11.99;43.44;94311.25;5073620;28;20063;-74
2024/04/05 05:55:16;;;;;;;28.00;5.95;;;;;;;11.30;43.60;94318.13;5073354;28;20477;-73
2024/04/05 05:57:42;;;;;;;18.85;5.38;;;;;;;11.24;44.12;94314.06;5073262;28;20044;-74
2024/04/05 06:00:09;;;;;;;13.15;5.22;;;;;;;10.96;44.89;94311.50;5073026;28;20123;-74
2024/04/05 06:02:39;;;;;;;18.67;5.05;;;;;;;11.53;44.33;94319.72;5073057;28;20032;-74
2024/04/05 06:05:05;;;;;;;19.00;5.32;;;;;;;12.06;43.35;94310.81;5073555;28;20029;-75
2024/04/05 06:07:31;;;;;;;21.08;5.55;;;;;;;12.46;42.23;94310.44;5073099;28;20079;-75
2024/04/05 06:09:57;;;;;;;19.17;5.55;;;;;;;12.71;41.65;94316.91;5072963;28;20028;-75
2024/04/05 06:12:23;;;;;;;13.77;5.32;;;;;;;12.63;41.33;94317.69;5072940;28;20554;-75
2024/04/05 06:14:52;;;;;;;21.50;6.22;;;;;;;12.20;42.05;94322.16;5073063;28;20054;-75
2024/04/05 06:17:17;;;;;;;13.43;6.13;;;;;;;12.00;43.11;94302.97;5073040;28;20119;-75
2024/04/05 06:19:43;;;;;;;18.88;6.45;;;;;;;12.35;43.19;94313.72;5072649;28;20063;-76
2024/04/05 06:22:08;;;;;;;18.38;5.93;;;;;;;12.54;42.18;94321.41;5071933;28;20058;-75
2024/04/05 06:24:33;;;;;;;13.52;6.15;;;;;;;12.60;42.32;94329.00;5071757;28;20070;-75
2024/04/05 06:26:59;;;;;;;17.85;6.68;;;;;;;12.81;42.01;94324.59;5071114;28;20401;-75
2024/04/05 06:29:24;;;;;;;15.55;5.90;;;;;;;12.86;42.31;94329.78;5072125;28;20044;-75
2024/04/05 06:31:49;;;;;;;20.13;6.00;;;;;;;13.25;41.20;94323.47;5072046;28;20051;-75
2024/04/05 06:34:15;;;;;;;13.25;6.00;;;;;;;13.42;40.79;94336.00;5073022;28;20099;-75
2024/04/05 06:36:40;;;;;;;24.92;6.57;;;;;;;13.23;40.42;94325.69;5072835;28;20493;-75
2024/04/05 06:39:06;;;;;;;21.38;7.25;;;;;;;13.49;40.34;94339.00;5071827;28;20048;-75
2024/04/05 06:41:31;;;;;;;15.88;6.03;;;;;;;13.45;40.65;94330.03;5072212;28;20032;-75
2024/04/05 06:43:57;;;;;;;14.68;6.03;;;;;;;13.72;40.59;94331.56;5072186;28;20040;-75
2024/04/05 06:46:24;;;;;;;18.67;5.57;;;;;;;13.56;40.21;94322.44;5071049;28;20024;-75
2024/04/05 06:48:50;;;;;;;17.92;5.72;;;;;;;13.84;40.21;94338.91;5072670;28;20019;-75
2024/04/05 06:51:16;;;;;;;16.35;5.25;;;;;;;13.98;40.39;94356.31;5071758;28;20416;-75
2024/04/05 06:53:42;;;;;;;13.93;5.57;;;;;;;14.09;39.82;94364.75;5072392;28;20119;-75
2024/04/05 06:56:08;;;;;;;12.30;5.97;;;;;;;14.13;39.71;94360.34;5071820;28;20033;-75
2024/04/05 06:58:34;;;;;;;14.25;5.72;;;;;;;14.10;39.15;94369.00;5071978;28;20068;-75
2024/04/05 07:01:01;;;;;;;14.13;5.95;;;;;;;14.20;39.28;94368.63;5072162;28;20036;-75
2024/04/05 07:03:27;;;;;;;11.75;5.70;;;;;;;13.30;41.11;94373.25;5071431;28;20056;-75
2024/04/05 07:06:06;;;;;;;19.75;5.82;;;;;;;13.65;40.05;94376.69;5072064;28;20055;-75
2024/04/05 07:08:31;;;;;;;18.50;6.65;;;;;;;13.95;40.14;94374.88;5071767;28;20051;-75
2024/04/05 07:10:57;;;;;;;12.05;6.05;;;;;;;14.35;38.60;94362.75;5071757;28;20504;-75
2024/04/05 07:13:24;;;;;;;17.33;5.57;;;;;;;14.44;38.24;94349.31;5071711;28;20039;-75
2024/04/05 07:15:49;;;;;;;15.88;5.75;;;;;;;14.79;38.77;94366.75;5072089;28;20012;-75
2024/04/05 07:18:22;;;;;;;15.45;5.78;;;;;;;14.69;38.79;94374.38;5071074;28;20563;-75
2024/04/05 07:20:47;;;;;;;12.73;6.03;;;;;;;14.78;39.36;94369.75;5071564;28;20039;-75
2024/04/05 07:23:13;;;;;;;15.52;5.75;;;;;;;15.07;38.06;94372.38;5071626;28;20401;-75
2024/04/05 07:25:38;;;;;;;19.35;6.55;;;;;;;14.97;37.85;94368.19;5071083;28;20481;-75
2024/04/05 07:28:04;;;;;;;13.70;5.45;;;;;;;15.13;37.59;94338.91;5072133;28;20116;-75
2024/04/05 07:30:29;;;;;;;17.38;5.78;;;;;;;15.40;37.36;94362.47;5070838;28;20563;-75
2024/04/05 07:32:55;;;;;;;15.35;4.78;;;;;;;15.45;37.88;94348.09;5071200;28;20037;-75
2024/04/05 07:35:22;;;;;;;12.27;5.13;;;;;;;15.60;37.07;94365.47;5071306;28;20045;-75
2024/04/05 07:37:48;;;;;;;19.60;5.03;;;;;;;15.83;36.92;94366.66;5071608;28;20059;-75
2024/04/05 07:40:25;;;;;;;14.23;4.88;;;;;;;15.92;36.49;94359.28;5071173;28;20030;-75
2024/04/05 07:42:51;;;;;;;11.73;4.32;;;;;;;15.65;36.60;94365.25;5071691;28;20021;-75
2024/04/05 07:45:19;;;;;;;12.23;5.13;;;;;;;15.59;36.31;94347.84;5070987;28;20341;-75
2024/04/05 07:47:47;;;;;;;17.23;5.55;;;;;;;15.65;36.88;94373.28;5071112;28;20032;-75
2024/04/05 07:50:13;;;;;;;13.18;4.97;;;;;;;15.54;37.26;94367.59;5070952;28;20028;-75
2024/04/05 07:52:39;;;;;;;14.73;4.57;;;;;;;15.40;37.15;94369.75;5071359;28;20045;-75
2024/04/05 07:55:04;;;;;;;14.63;5.57;;;;;;;15.42;36.63;94370.19;5071433;28;20037;-75
2024/04/05 07:57:29;;;;;;;12.82;4.97;;;;;;;15.62;36.85;94376.66;5070813;28;20056;-75
2024/04/05 07:59:55;;;;;;;9.93;4.47;;;;;;;15.77;37.11;94376.81;5071131;28;20029;-75
2024/04/05 08:02:27;;;;;;;15.52;4.25;;;;;;;15.81;36.01;94374.25;5070661;28;20036;-75
2024/04/05 08:04:55;;;;;;;10.32;3.70;;;;;;;15.60;36.62;94368.94;5070836;28;20032;-75
2024/04/05 08:07:23;;;;;;;14.63;5.00;;;;;;;15.68;36.80;94368.06;5070966;28;20025;-75
2024/04/05 08:09:53;;;;;;;12.88;3.88;;;;;;;15.91;36.98;94379.19;5071042;28;20019;-75
2024/04/05 08:12:18;;;;;;;15.15;5.97;;;;;;;15.96;36.13;94362.09;5070707;28;20040;-75
2024/04/05 08:14:44;;;;;;;11.27;5.60;;;;;;;16.02;36.69;94374.97;5071105;28;20039;-75
2024/04/05 08:17:13;;;;;;;14.30;4.53;;;;;;;16.15;35.70;94378.44;5070699;28;20043;-75
2024/04/05 08:19:38;;;;;;;21.23;4.38;;;;;;;16.08;35.91;94368.28;5070748;28;20036;-75
2024/04/05 08:22:05;;;;;;;11.65;3.20;;;;;;;16.21;35.35;94380.56;5070813;28;20469;-75
2024/04/05 08:24:30;;;;;;;24.30;4.80;;;;;;;16.15;36.92;94367.69;5070544;28;20028;-75
2024/04/05 08:26:56;;;;;;;10.90;2.63;;;;;;;16.33;34.95;94368.31;5070569;28;20067;-75
2024/04/05 08:29:24;;;;;;;12.50;1.95;;;;;;;16.13;34.65;94373.41;5069685;28;20032;-75
2024/04/05 08:31:50;;;;;;;1.70;0.90;;;;;;;16.09;33.96;94363.66;5069103;28;20041;-75
2024/04/05 08:34:15;;;;;;;14.15;0.95;;;;;;;16.20;32.72;94365.59;5068687;28;20193;-75
2024/04/05 08:36:48;;;;;;;4.22;1.08;;;;;;;16.24;32.91;94361.09;5069396;28;20484;-77
2024/04/05 08:39:17;;;;;;;4.47;0.93;;;;;;;16.01;32.93;94359.97;5068970;28;20048;-77
2024/04/05 08:41:44;;;;;;;2.20;1.13;;;;;;;16.00;33.89;94361.09;5068911;28;20040;-76
2024/04/05 08:44:12;;;;;;;4.90;1.10;;;;;;;15.90;34.66;94356.16;5069640;28;20078;-76
2024/04/05 08:46:38;;;;;;;2.15;1.00;;;;;;;15.71;34.25;94355.88;5071006;28;20059;-75
2024/04/05 08:49:05;;;;;;;2.70;1.10;;;;;;;15.79;33.71;94344.31;5070959;28;20465;-74
2024/04/05 08:51:32;;;;;;;1.98;0.70;;;;;;;15.82;34.08;94360.50;5072339;28;20630;-75
2024/04/05 08:53:58;;;;;;;5.95;1.42;;;;;;;15.90;33.46;94358.84;5074105;28;20071;-75
2024/04/05 08:56:26;;;;;;;2.67;0.77;;;;;;;16.13;33.71;94362.69;5074591;28;20041;-75
2024/04/05 08:58:52;;;;;;;9.20;1.90;;;;;;;15.95;33.15;94349.78;5074055;28;20041;-75
2024/04/05 09:01:20;;;;;;;2.10;1.00;;;;;;;15.66;34.36;94350.75;5074285;28;20028;-75
2024/04/05 09:03:48;;;;;;;2.92;1.00;;;;;;;15.58;34.18;94360.44;5074332;28;20103;-75
2024/04/05 09:06:14;;;;;;;1.98;0.60;;;;;;;15.76;33.55;94347.63;5074137;28;20036;-75
2024/04/05 09:08:46;;;;;;;5.50;1.80;;;;;;;15.84;33.81;94352.91;5074469;28;20032;-75
2024/04/05 09:11:25;;;;;;;3.47;0.95;;;;;;;15.83;32.97;94350.56;5074120;28;20036;-75
2024/04/05 09:14:04;;;;;;;1.48;0.65;;;;;;;15.73;32.44;94359.03;5073896;28;20032;-75
2024/04/05 09:16:33;;;;;;;13.18;1.38;;;;;;;15.84;32.86;94357.50;5073576;28;20367;-75
2024/04/05 09:19:08;;;;;;;2.40;0.70;;;;;;;16.08;32.29;94356.75;5074109;28;20507;-75
2024/04/05 09:21:34;;;;;;;2.33;0.70;;;;;;;16.06;32.26;94335.59;5073673;28;20119;-75
2024/04/05 09:24:02;;;;;;;2.25;0.60;;;;;;;16.01;34.22;94341.19;5074075;28;20043;-75
2024/04/05 09:26:27;;;;;;;2.45;0.60;;;;;;;16.27;32.93;94349.72;5072481;28;20098;-75
2024/04/05 09:29:03;;;;;;;2.60;0.60;;;;;;;16.40;32.45;94349.72;5073570;28;20512;-75
2024/04/05 09:31:29;;;;;;;1.02;0.50;;;;;;;16.27;31.64;94349.72;5073647;28;20107;-75
2024/04/05 09:34:14;;;;;;;1.80;0.40;;;;;;;16.13;31.15;94360.00;5074740;28;20104;-75
2024/04/05 09:36:40;;;;;;;2.35;0.68;;;;;;;16.15;31.81;94363.13;5073812;28;20044;-75
2024/04/05 09:39:09;;;;;;;5.13;0.70;;;;;;;16.53;31.80;94345.91;5073552;28;20036;-75
2024/04/05 09:41:35;;;;;;;2.15;0.60;;;;;;;16.43;32.13;94338.34;5073761;28;20127;-75
2024/04/05 09:44:05;;;;;;;2.67;0.60;;;;;;;16.18;32.31;94332.16;5073290;28;20609;-75
2024/04/05 09:46:32;;;;;;;3.20;0.60;;;;;;;16.61;32.10;94348.50;5073489;28;20123;-75
2024/04/05 09:48:58;;;;;;;1.20;0.50;;;;;;;16.60;30.25;94346.13;5074212;28;20024;-75
2024/04/05 09:51:46;;;;;;;0.40;0.40;;;;;;;16.54;31.05;94353.63;5073192;28;20541;-75
2024/04/05 09:54:15;;;;;;;2.30;0.60;;;;;;;16.93;31.46;94348.66;5073182;28;20040;-75
2024/04/05 09:56:43;;;;;;;1.52;0.60;;;;;;;17.03;33.47;94348.97;5072991;28;20418;-75
2024/04/05 09:59:25;;;;;;;2.03;0.50;;;;;;;16.91;32.33;94351.69;5073186;28;20060;-75
2024/04/05 10:01:52;;;;;;;2.67;0.50;;;;;;;16.55;32.20;94316.84;5072832;28;20032;-75
2024/04/05 10:04:18;;;;;;;0.98;0.60;;;;;;;16.84;32.91;94346.09;5072808;28;20027;-75
2024/04/05 10:06:45;;;;;;;0.70;0.50;;;;;;;16.97;32.82;94344.94;5073730;28;20424;-75
2024/04/05 10:09:18;;;;;;;0.95;0.60;;;;;;;16.95;31.97;94336.44;5072789;28;20098;-75
2024/04/05 10:11:45;;;;;;;2.97;0.90;;;;;;;17.14;32.66;94336.66;5072647;28;20044;-75
2024/04/05 10:14:21;;;;;;;1.58;0.70;;;;;;;17.04;32.70;94339.78;5072941;28;20116;-75
2024/04/05 10:16:48;;;;;;;2.35;0.60;;;;;;;17.08;31.95;94329.13;5073026;28;20040;-75
2024/04/05 10:19:15;;;;;;;4.57;0.60;;;;;;;17.12;32.42;94324.63;5072679;28;20021;-75
2024/04/05 10:21:41;;;;;;;2.97;0.70;;;;;;;17.14;32.57;94327.78;5073384;28;20024;-75
2024/04/05 10:24:07;;;;;;;2.38;0.60;;;;;;;17.04;32.81;94334.41;5072568;28;20036;-76
2024/04/05 10:26:35;;;;;;;1.48;0.50;;;;;;;16.69;32.15;94328.00;5073040;28;20032;-75
2024/04/05 10:29:05;;;;;;;1.45;0.45;;;;;;;16.83;32.33;94333.78;5072504;28;20120;-75
2024/04/05 10:31:34;;;;;;;2.67;0.50;;;;;;;17.21;31.78;94332.59;5072615;28;20020;-75
2024/04/05 10:34:03;;;;;;;0.88;0.50;;;;;;;17.57;31.68;94321.66;5072901;28;20610;-75
2024/04/05 10:36:31;;;;;;;2.22;0.75;;;;;;;17.67;30.51;94306.91;5071892;28;20036;-75
2024/04/05 10:38:57;;;;;;;2.03;0.50;;;;;;;17.73;29.73;94317.09;5072170;28;20075;-75
2024/04/05 10:41:22;;;;;;;2.20;0.50;;;;;;;17.40;29.68;94314.69;5072233;28;20087;-75
2024/04/05 10:43:48;;;;;;;0.57;0.45;;;;;;;17.43;29.83;94315.91;5072140;28;20504;-75
2024/04/05 10:46:15;;;;;;;10.65;1.55;;;;;;;17.14;29.78;94314.34;5072696;28;20393;-75
2024/04/05 10:48:41;;;;;;;5.80;1.20;;;;;;;16.97;30.58;94301.94;5073049;28;20021;-75
2024/04/05 10:51:06;;;;;;;4.55;0.70;;;;;;;17.10;30.21;94290.06;5072246;28;20409;-75
2024/04/05 10:53:31;;;;;;;2.95;0.68;;;;;;;17.37;29.57;94315.38;5072151;28;20043;-75
2024/04/05 10:55:57;;;;;;;18.38;1.42;;;;;;;17.33;29.52;94292.22;5071645;28;20041;-75
2024/04/05 10:58:22;;;;;;;14.00;1.88;;;;;;;17.48;30.15;94310.28;5071149;28;20552;-75
2024/04/05 11:00:48;;;;;;;0.85;0.40;;;;;;;17.35;29.69;94303.41;5072067;28;20016;-75
2024/04/05 11:03:13;;;;;;;0.68;0.40;;;;;;;17.39;29.26;94305.06;5071139;28;20066;-75
2024/04/05 11:05:39;;;;;;;2.65;0.40;;;;;;;17.37;29.40;94306.53;5070722;28;20044;-75
2024/04/05 11:08:06;;;;;;;0.47;0.38;;;;;;;17.66;29.02;94306.13;5071020;28;20063;-75
2024/04/05 11:10:33;;;;;;;3.10;0.55;;;;;;;17.40;29.89;94303.94;5069802;28;20303;-75
2024/04/05 11:13:00;;;;;;;0.98;0.50;;;;;;;17.55;29.34;94308.53;5071345;28;20037;-75
2024/04/05 11:15:25;;;;;;;0.45;0.43;;;;;;;17.72;29.67;94307.44;5071100;28;20461;-75
2024/04/05 11:17:59;;;;;;;2.40;0.50;;;;;;;18.06;29.54;94313.31;5071631;28;20071;-75
2024/04/05 11:20:27;;;;;;;10.35;1.05;;;;;;;18.14;28.69;94312.38;5071653;28;20029;-75
2024/04/05 11:23:00;;;;;;;4.65;0.55;;;;;;;18.12;28.56;94309.22;5071090;28;20037;-75
2024/04/05 11:25:25;;;;;;;1.10;0.50;;;;;;;18.16;29.18;94315.47;5071619;28;20059;-75
2024/04/05 11:27:50;;;;;;;5.80;0.70;;;;;;;18.16;30.80;94321.66;5071642;28;20067;-75
2024/04/05 11:30:16;;;;;;;2.05;0.47;;;;;;;17.76;30.29;94321.78;5070897;28;20036;-75